This is the latest recevied weather packets stored in our database for station/object VA5EVR-13. If no packets are shown the sender has not sent any weather packets the latest 10 day(s).
| Time | Temp. | Humidity | Pressure | Rain* | Wind** | Luminosity | Snow |
|---|---|---|---|---|---|---|---|
| 1778085612 | 7.22° C | 34% | 88.8 hPa | 0 mm | - | - | - |
| 1778085011 | 7.22° C | 34% | 88.8 hPa | 0 mm | - | - | - |
| 1778084412 | 7.22° C | 34% | 88.8 hPa | 0 mm | - | - | - |
| 1778083812 | 7.22° C | 34% | 88.8 hPa | 0 mm | - | - | - |
| 1778083211 | 7.78° C | 35% | 88.8 hPa | 0 mm | - | - | - |
| 1778082612 | 7.78° C | 35% | 88.8 hPa | 0 mm | - | - | - |
| 1778082012 | 8.33° C | 35% | 88.8 hPa | 0 mm | - | - | - |
| 1778081412 | 8.33° C | 36% | 88.8 hPa | 0 mm | - | - | - |
| 1778080813 | 9.44° C | 36% | 88.8 hPa | 0 mm | - | - | - |
| 1778080212 | 10° C | 36% | 88.8 hPa | 0 mm | - | - | - |
| 1778079612 | 10° C | 37% | 88.8 hPa | 0 mm | - | - | - |
| 1778079012 | 9.44° C | 37% | 88.8 hPa | 0 mm | - | - | - |
| 1778078412 | 9.44° C | 37% | 88.8 hPa | 0 mm | - | - | - |
| 1778077812 | 9.44° C | 38% | 88.8 hPa | 0 mm | - | - | - |
| 1778077212 | 9.44° C | 40% | 88.8 hPa | 0 mm | - | - | - |
| 1778076612 | 8.33° C | 42% | 88.8 hPa | 0 mm | - | - | - |
| 1778076017 | 7.78° C | 45% | 88.8 hPa | 0 mm | - | - | - |
| 1778075412 | 6.67° C | 45% | 88.8 hPa | 0 mm | - | - | - |
| 1778074812 | 6.11° C | 46% | 88.8 hPa | 0 mm | - | - | - |
| 1778074212 | 4.44° C | 47% | 88.8 hPa | 0 mm | - | - | - |
| 1778073611 | 2.22° C | 47% | 88.8 hPa | 0 mm | - | - | - |
| 1778071811 | -6.11° C | 61% | 88.8 hPa | 0 mm | - | - | - |
| 1778071212 | -7.22° C | 63% | 88.8 hPa | 0 mm | - | - | - |
| 1778070611 | -7.78° C | 62% | 88.8 hPa | 0 mm | - | - | - |
| 1778070011 | -8.89° C | 61% | 88.8 hPa | 0 mm | - | - | - |
* Rain latest hour (hover to see other rain measurements)
** Current wind speed in m/s (hover to see current wind gust speed)